createdAt,value
2023-01-09T00:02:05.582Z,5.18
2023-01-09T00:04:32.547Z,5.50
2023-01-09T00:06:59.302Z,5.10
2023-01-09T00:09:26.280Z,4.90
2023-01-09T00:11:54.965Z,5.07
2023-01-09T00:14:23.000Z,5.10
2023-01-09T00:16:50.160Z,4.60
2023-01-09T00:19:16.996Z,4.65
2023-01-09T00:21:43.693Z,4.80
2023-01-09T00:24:10.440Z,5.18
2023-01-09T00:26:37.180Z,5.05
2023-01-09T00:29:06.053Z,4.75
2023-01-09T00:31:32.733Z,4.90
2023-01-09T00:34:10.395Z,4.80
2023-01-09T00:36:37.211Z,5.28
2023-01-09T00:39:05.483Z,4.72
2023-01-09T00:41:37.832Z,4.85
2023-01-09T00:44:11.775Z,5.00
2023-01-09T00:46:43.864Z,4.45
2023-01-09T00:49:12.864Z,4.70
2023-01-09T00:51:41.264Z,4.88
2023-01-09T00:54:10.221Z,5.20
2023-01-09T00:56:37.280Z,4.55
2023-01-09T00:59:04.976Z,4.70
2023-01-09T01:01:32.239Z,4.72
2023-01-09T01:03:59.220Z,4.43
2023-01-09T01:06:44.604Z,4.60
2023-01-09T01:09:11.373Z,4.50
2023-01-09T01:11:38.341Z,4.53
2023-01-09T01:14:05.124Z,4.22
2023-01-09T01:16:32.585Z,4.82
2023-01-09T01:18:59.300Z,4.90
2023-01-09T01:21:26.068Z,5.28
2023-01-09T01:23:52.917Z,5.28
2023-01-09T01:26:19.618Z,5.13
2023-01-09T01:28:46.335Z,4.57
2023-01-09T01:31:18.656Z,4.50
2023-01-09T01:33:45.645Z,4.47
2023-01-09T01:36:12.519Z,4.20
2023-01-09T01:38:39.256Z,4.15
2023-01-09T01:41:07.114Z,4.45
2023-01-09T01:43:55.694Z,4.57
2023-01-09T01:46:22.788Z,4.40
2023-01-09T01:49:07.409Z,4.28
2023-01-09T01:51:39.905Z,4.47
2023-01-09T01:54:11.644Z,4.72
2023-01-09T01:56:44.371Z,4.50
2023-01-09T01:59:34.893Z,4.82
2023-01-09T02:02:03.234Z,4.22
2023-01-09T02:04:34.292Z,3.95
2023-01-09T02:07:04.839Z,4.40
2023-01-09T02:09:31.933Z,4.40
2023-01-09T02:12:00.690Z,4.18
2023-01-09T02:14:31.890Z,3.78
2023-01-09T02:17:23.166Z,4.28
2023-01-09T02:20:08.302Z,4.00
2023-01-09T02:23:05.404Z,4.15
2023-01-09T02:25:44.677Z,3.97
2023-01-09T02:28:31.692Z,4.25
2023-01-09T02:31:28.685Z,4.47
2023-01-09T02:34:22.972Z,4.20
2023-01-09T02:37:04.129Z,4.38
2023-01-09T02:39:33.547Z,4.45
2023-01-09T02:42:04.299Z,4.20
2023-01-09T02:44:34.421Z,4.28
2023-01-09T02:47:16.081Z,4.07
2023-01-09T02:49:59.709Z,4.55
2023-01-09T02:52:41.411Z,4.18
2023-01-09T02:55:26.793Z,4.22
2023-01-09T02:58:12.148Z,4.40
2023-01-09T03:00:41.967Z,4.53
2023-01-09T03:03:12.007Z,4.45
2023-01-09T03:05:47.798Z,4.30
2023-01-09T03:08:20.672Z,4.10
2023-01-09T03:11:04.711Z,4.35
2023-01-09T03:13:54.063Z,4.40
2023-01-09T03:16:25.772Z,4.28
2023-01-09T03:18:54.177Z,4.43
2023-01-09T03:21:22.634Z,4.85
2023-01-09T03:23:53.911Z,4.47
2023-01-09T03:26:21.273Z,4.78
2023-01-09T03:28:48.151Z,4.30
2023-01-09T03:31:15.376Z,5.07
2023-01-09T03:33:42.298Z,4.45
2023-01-09T03:36:10.419Z,4.60
2023-01-09T03:38:37.494Z,4.35
2023-01-09T03:41:05.087Z,4.68
2023-01-09T03:43:32.070Z,4.45
2023-01-09T03:45:59.344Z,4.55
2023-01-09T03:48:26.264Z,4.70
2023-01-09T03:50:54.675Z,5.07
2023-01-09T03:53:23.658Z,4.78
2023-01-09T03:55:52.858Z,5.10
2023-01-09T03:58:21.060Z,4.70
2023-01-09T04:00:52.295Z,4.63
2023-01-09T04:03:20.472Z,4.82
2023-01-09T04:05:49.588Z,4.68
2023-01-09T04:08:17.717Z,4.35
2023-01-09T04:10:45.676Z,4.45
2023-01-09T04:13:12.672Z,5.00
2023-01-09T04:15:39.549Z,4.70
2023-01-09T04:18:06.637Z,4.45
2023-01-09T04:20:33.770Z,4.65
2023-01-09T04:23:00.743Z,5.10
2023-01-09T04:25:27.738Z,4.80
2023-01-09T04:27:54.574Z,4.82
2023-01-09T04:30:21.608Z,5.03
2023-01-09T04:32:48.389Z,4.78
2023-01-09T04:35:15.328Z,4.95
2023-01-09T04:37:42.040Z,5.50
2023-01-09T04:40:10.429Z,5.45
2023-01-09T04:42:38.016Z,4.95
2023-01-09T04:45:06.202Z,4.88
2023-01-09T04:47:33.061Z,4.95
2023-01-09T04:50:01.014Z,5.10
2023-01-09T04:52:28.141Z,5.30
2023-01-09T04:54:54.878Z,5.40
2023-01-09T04:57:22.056Z,4.90
2023-01-09T04:59:48.789Z,5.40
2023-01-09T05:02:15.841Z,5.50
2023-01-09T05:04:42.701Z,5.35
2023-01-09T05:07:09.449Z,4.65
2023-01-09T05:09:36.262Z,5.35
2023-01-09T05:12:03.326Z,5.38
2023-01-09T05:14:30.293Z,5.20
2023-01-09T05:16:57.108Z,5.13
2023-01-09T05:19:24.335Z,5.28
2023-01-09T05:21:51.029Z,5.53
2023-01-09T05:24:18.197Z,6.05
2023-01-09T05:26:44.957Z,5.32
2023-01-09T05:29:11.660Z,5.45
2023-01-09T05:31:38.510Z,5.53
2023-01-09T05:34:05.751Z,5.07
2023-01-09T05:36:32.637Z,5.47
2023-01-09T05:38:59.498Z,5.72
2023-01-09T05:41:26.490Z,5.55
2023-01-09T05:43:53.269Z,5.05
2023-01-09T05:46:20.182Z,5.57
2023-01-09T05:48:47.130Z,6.10
2023-01-09T05:51:14.109Z,5.88
2023-01-09T05:53:40.893Z,5.70
2023-01-09T05:56:07.932Z,5.60
2023-01-09T05:58:38.158Z,5.38
2023-01-09T06:01:05.085Z,5.53
2023-01-09T06:03:31.922Z,5.53
2023-01-09T06:06:01.342Z,5.45
2023-01-09T06:08:28.127Z,5.65
2023-01-09T06:10:55.180Z,5.75
2023-01-09T06:13:22.201Z,5.60
2023-01-09T06:15:49.440Z,5.78
2023-01-09T06:18:16.516Z,5.65
2023-01-09T06:20:45.908Z,6.65
2023-01-09T06:23:13.719Z,5.90
2023-01-09T06:25:41.000Z,6.20
2023-01-09T06:28:08.025Z,6.43
2023-01-09T06:30:35.231Z,5.75
2023-01-09T06:33:01.991Z,5.93
2023-01-09T06:35:29.160Z,6.13
2023-01-09T06:37:56.187Z,6.55
2023-01-09T06:40:23.005Z,6.15
2023-01-09T06:42:50.109Z,5.78
2023-01-09T06:45:17.356Z,5.25
2023-01-09T06:47:44.104Z,6.28
2023-01-09T06:50:12.047Z,5.78
2023-01-09T06:52:39.246Z,5.80
2023-01-09T06:55:06.872Z,6.45
2023-01-09T06:57:33.606Z,6.22
2023-01-09T07:00:00.514Z,6.18
2023-01-09T07:02:27.250Z,6.35
2023-01-09T07:04:53.915Z,5.75
2023-01-09T07:07:22.379Z,6.20
2023-01-09T07:09:49.243Z,6.03
2023-01-09T07:12:25.564Z,5.50
2023-01-09T07:14:52.683Z,5.90
2023-01-09T07:17:19.468Z,5.68
2023-01-09T07:19:46.341Z,5.75
2023-01-09T07:22:13.216Z,5.35
2023-01-09T07:24:40.038Z,5.07
2023-01-09T07:27:06.760Z,5.57
2023-01-09T07:29:33.591Z,5.88
2023-01-09T07:32:00.317Z,5.65
2023-01-09T07:34:26.990Z,5.70
2023-01-09T07:36:53.731Z,5.53
2023-01-09T07:39:20.812Z,5.90
2023-01-09T07:41:47.705Z,5.47
2023-01-09T07:44:15.752Z,5.18
2023-01-09T07:46:42.494Z,5.85
2023-01-09T07:49:09.262Z,5.40
2023-01-09T07:51:39.107Z,5.70
2023-01-09T07:54:06.079Z,5.32
2023-01-09T07:56:32.848Z,5.38
2023-01-09T07:58:59.534Z,5.10
2023-01-09T08:01:26.368Z,5.75
2023-01-09T08:03:53.909Z,5.55
2023-01-09T08:06:20.930Z,5.93
2023-01-09T08:08:48.043Z,5.10
2023-01-09T08:11:14.933Z,5.65
2023-01-09T08:13:41.872Z,6.13
2023-01-09T08:16:08.728Z,5.90
2023-01-09T08:18:35.558Z,5.47
2023-01-09T08:21:02.328Z,5.28
2023-01-09T08:23:29.086Z,5.30
2023-01-09T08:25:55.933Z,5.75
2023-01-09T08:28:22.630Z,5.63
2023-01-09T08:30:49.456Z,5.75
2023-01-09T08:33:16.318Z,5.93
2023-01-09T08:35:44.502Z,5.45
2023-01-09T08:38:11.570Z,5.65
2023-01-09T08:40:38.629Z,5.32
2023-01-09T08:43:24.208Z,6.18
2023-01-09T08:46:10.215Z,5.43
2023-01-09T08:48:37.004Z,5.45
2023-01-09T08:51:03.983Z,5.53
2023-01-09T08:53:31.550Z,5.63
2023-01-09T08:55:59.229Z,5.85
2023-01-09T08:58:26.561Z,5.60
2023-01-09T09:00:53.419Z,5.63
2023-01-09T09:03:21.673Z,5.65
2023-01-09T09:05:48.500Z,5.72
2023-01-09T09:08:16.508Z,5.47
2023-01-09T09:10:43.447Z,5.55
2023-01-09T09:13:10.342Z,5.65
2023-01-09T09:15:38.945Z,5.78
2023-01-09T09:18:07.177Z,5.80
2023-01-09T09:20:36.980Z,5.50
2023-01-09T09:23:04.127Z,5.68
2023-01-09T09:25:31.398Z,5.75
2023-01-09T09:27:58.296Z,5.40
2023-01-09T09:30:25.268Z,5.28
2023-01-09T09:32:52.313Z,5.60
2023-01-09T09:35:20.922Z,5.57
2023-01-09T09:37:56.150Z,5.57
2023-01-09T09:40:48.844Z,5.28
2023-01-09T09:44:10.045Z,5.63
2023-01-09T09:46:45.881Z,5.95
2023-01-09T09:49:19.895Z,5.40
2023-01-09T09:51:46.665Z,5.20
2023-01-09T09:54:19.015Z,5.53
2023-01-09T09:56:51.799Z,5.47
2023-01-09T09:59:26.822Z,5.40
2023-01-09T10:02:02.448Z,5.63
2023-01-09T10:04:32.517Z,5.60
2023-01-09T10:07:09.622Z,5.03
2023-01-09T10:09:47.714Z,5.53
2023-01-09T10:12:39.227Z,5.20
2023-01-09T10:15:21.094Z,5.05
2023-01-09T10:18:04.539Z,5.13
2023-01-09T10:20:52.434Z,4.90
2023-01-09T10:23:34.030Z,5.30
2023-01-09T10:26:11.846Z,5.10
2023-01-09T10:28:59.184Z,5.95
2023-01-09T10:31:39.284Z,5.82
2023-01-09T10:34:44.828Z,5.20
2023-01-09T10:37:16.264Z,5.75
2023-01-09T10:40:24.947Z,5.47
2023-01-09T10:43:00.152Z,5.30
2023-01-09T10:45:34.957Z,5.45
2023-01-09T10:48:24.905Z,5.60
2023-01-09T10:50:52.654Z,5.13
2023-01-09T10:53:43.139Z,5.35
2023-01-09T10:58:56.384Z,5.10
2023-01-09T11:01:29.908Z,5.20
2023-01-09T11:03:59.212Z,5.05
2023-01-09T11:06:40.170Z,5.35
2023-01-09T11:09:07.574Z,5.50
2023-01-09T11:11:40.836Z,5.40
2023-01-09T11:14:27.574Z,5.65
2023-01-09T11:17:01.392Z,5.03
2023-01-09T11:19:28.635Z,5.20
2023-01-09T11:22:28.341Z,5.40
2023-01-09T11:25:02.952Z,4.93
2023-01-09T11:27:29.777Z,4.97
2023-01-09T11:30:22.488Z,5.40
2023-01-09T11:32:49.468Z,5.82
2023-01-09T11:35:34.736Z,5.13
2023-01-09T11:38:12.300Z,5.55
2023-01-09T11:40:50.816Z,5.95
2023-01-09T11:43:30.441Z,5.30
2023-01-09T11:46:01.528Z,5.70
2023-01-09T11:48:56.971Z,6.03
2023-01-09T11:51:26.435Z,4.90
2023-01-09T11:53:53.238Z,4.82
2023-01-09T11:56:20.116Z,5.45
2023-01-09T11:58:46.915Z,5.43
2023-01-09T12:01:19.479Z,5.90
2023-01-09T12:04:08.481Z,5.00
2023-01-09T12:06:47.381Z,5.07
2023-01-09T12:09:43.185Z,5.22
2023-01-09T12:12:25.465Z,5.00
2023-01-09T12:15:02.298Z,4.97
2023-01-09T12:17:41.369Z,5.00
2023-01-09T12:20:14.151Z,5.57
2023-01-09T12:23:16.380Z,5.47
2023-01-09T12:25:48.919Z,5.25
2023-01-09T12:28:30.759Z,5.43
2023-01-09T12:31:09.308Z,5.25
2023-01-09T12:34:03.712Z,5.30
2023-01-09T12:36:54.892Z,5.18
2023-01-09T12:39:33.576Z,5.18
2023-01-09T12:42:30.613Z,5.53
2023-01-09T12:45:47.796Z,4.93
2023-01-09T12:48:39.204Z,4.55
2023-01-09T12:51:17.062Z,4.82
2023-01-09T12:53:51.228Z,4.72
2023-01-09T12:56:24.544Z,4.78
2023-01-09T12:58:55.774Z,4.72
2023-01-09T13:01:32.611Z,4.35
2023-01-09T13:04:28.433Z,5.15
2023-01-09T13:07:01.272Z,3.63
2023-01-09T13:09:46.889Z,4.35
2023-01-09T13:12:22.539Z,4.32
2023-01-09T13:14:56.730Z,4.18
2023-01-09T13:17:51.464Z,3.88
2023-01-09T13:20:23.388Z,4.28
2023-01-09T13:22:52.423Z,4.20
2023-01-09T13:25:44.776Z,4.70
2023-01-09T13:28:26.673Z,4.25
2023-01-09T13:30:58.591Z,3.80
2023-01-09T13:33:32.753Z,4.00
2023-01-09T13:36:00.197Z,3.50
2023-01-09T13:38:31.306Z,4.25
2023-01-09T13:41:22.184Z,3.83
2023-01-09T13:44:18.930Z,3.92
2023-01-09T13:46:50.335Z,3.63
2023-01-09T13:49:41.936Z,3.83
2023-01-09T13:52:33.579Z,3.45
2023-01-09T13:55:02.297Z,3.97
2023-01-09T13:57:31.996Z,3.85
2023-01-09T14:00:14.691Z,3.80
2023-01-09T14:02:42.061Z,3.80
2023-01-09T14:05:17.027Z,3.75
2023-01-09T14:07:45.755Z,3.47
2023-01-09T14:10:26.809Z,3.50
2023-01-09T14:12:56.016Z,3.97
2023-01-09T14:15:37.093Z,3.88
2023-01-09T14:18:06.927Z,3.40
2023-01-09T14:20:39.623Z,3.30
2023-01-09T14:23:31.481Z,3.70
2023-01-09T14:25:55.234Z,3.50
2023-01-09T14:28:27.478Z,3.42
2023-01-09T14:30:54.308Z,3.10
2023-01-09T14:33:25.219Z,3.38
2023-01-09T14:36:10.332Z,3.20
2023-01-09T14:38:43.220Z,3.00
2023-01-09T14:41:47.616Z,3.00
2023-01-09T14:44:42.631Z,3.20
2023-01-09T14:47:31.222Z,2.90
2023-01-09T14:50:04.271Z,2.90
2023-01-09T14:52:37.007Z,3.30
2023-01-09T14:55:13.888Z,3.33
2023-01-09T14:57:40.583Z,3.03
2023-01-09T15:00:14.661Z,3.20
2023-01-09T15:02:43.041Z,2.97
2023-01-09T15:05:23.561Z,2.72
2023-01-09T15:10:25.189Z,2.88
2023-01-09T15:12:55.009Z,2.92
2023-01-09T15:15:22.909Z,3.17
2023-01-09T15:17:59.187Z,2.80
2023-01-09T15:20:29.956Z,2.90
2023-01-09T15:22:57.948Z,3.10
2023-01-09T15:25:44.618Z,3.35
2023-01-09T15:28:32.316Z,3.20
2023-01-09T15:31:18.147Z,3.08
2023-01-09T15:33:47.493Z,2.67
2023-01-09T15:36:20.907Z,2.80
2023-01-09T15:38:50.133Z,2.92
2023-01-09T15:41:47.624Z,3.00
2023-01-09T15:44:22.748Z,3.00
2023-01-09T15:46:50.925Z,3.33
2023-01-09T15:49:19.511Z,2.78
2023-01-09T15:51:47.810Z,3.20
2023-01-09T15:54:17.083Z,3.30
2023-01-09T15:56:45.876Z,3.00
2023-01-09T15:59:27.448Z,3.10
2023-01-09T16:02:19.471Z,3.17
2023-01-09T16:04:47.945Z,3.10
2023-01-09T16:07:16.988Z,2.83
2023-01-09T16:09:47.558Z,3.17
2023-01-09T16:12:21.999Z,2.88
2023-01-09T16:14:55.784Z,3.60
2023-01-09T16:17:27.222Z,3.00
2023-01-09T16:19:55.401Z,2.60
2023-01-09T16:22:33.254Z,3.00
2023-01-09T16:25:02.379Z,2.88
2023-01-09T16:27:33.337Z,3.13
2023-01-09T16:30:07.711Z,2.83
2023-01-09T16:32:51.467Z,2.70
2023-01-09T16:35:20.732Z,2.65
2023-01-09T16:37:48.220Z,2.95
2023-01-09T16:40:20.326Z,3.28
2023-01-09T16:43:03.309Z,2.80
2023-01-09T16:45:34.492Z,3.10
2023-01-09T16:48:03.475Z,3.33
2023-01-09T16:50:30.328Z,3.20
2023-01-09T16:52:57.422Z,3.13
2023-01-09T16:55:24.331Z,3.08
2023-01-09T16:57:51.308Z,3.10
2023-01-09T17:00:19.930Z,2.83
2023-01-09T17:02:46.970Z,2.97
2023-01-09T17:05:13.956Z,2.75
2023-01-09T17:07:40.747Z,2.80
2023-01-09T17:10:20.442Z,3.03
2023-01-09T17:12:47.231Z,3.10
2023-01-09T17:15:14.075Z,2.92
2023-01-09T17:17:40.969Z,2.63
2023-01-09T17:20:16.273Z,2.53
2023-01-09T17:22:44.230Z,2.63
2023-01-09T17:25:33.272Z,2.60
2023-01-09T17:28:19.279Z,2.53
2023-01-09T17:30:46.077Z,2.50
2023-01-09T17:33:19.955Z,2.40
2023-01-09T17:35:46.941Z,2.40
2023-01-09T17:38:16.111Z,2.60
2023-01-09T17:40:43.635Z,2.35
2023-01-09T17:43:12.214Z,2.40
2023-01-09T17:45:44.718Z,2.50
2023-01-09T17:48:20.518Z,2.50
2023-01-09T17:50:49.130Z,2.50
2023-01-09T17:53:17.950Z,2.20
2023-01-09T17:55:44.882Z,2.20
2023-01-09T17:58:32.059Z,2.28
2023-01-09T18:01:01.905Z,2.15
2023-01-09T18:03:34.365Z,2.30
2023-01-09T18:06:02.934Z,2.38
2023-01-09T18:08:30.495Z,2.40
2023-01-09T18:10:57.871Z,2.45
2023-01-09T18:13:25.933Z,2.40
2023-01-09T18:15:55.117Z,2.40
2023-01-09T18:18:25.347Z,2.70
2023-01-09T18:20:56.204Z,2.47
2023-01-09T18:23:26.321Z,2.53
2023-01-09T18:25:54.562Z,3.33
2023-01-09T18:28:23.044Z,2.47
2023-01-09T18:30:52.896Z,3.92
2023-01-09T18:33:20.214Z,2.60
2023-01-09T18:35:47.738Z,2.33
2023-01-09T18:38:16.476Z,2.50
2023-01-09T18:40:43.871Z,2.67
2023-01-09T18:43:15.580Z,2.40
2023-01-09T18:45:42.559Z,2.10
2023-01-09T18:48:12.038Z,2.50
2023-01-09T18:50:41.021Z,2.58
2023-01-09T18:53:07.943Z,2.50
2023-01-09T18:55:38.073Z,2.55
2023-01-09T18:58:08.044Z,2.78
2023-01-09T19:00:37.184Z,2.95
2023-01-09T19:03:04.523Z,2.83
2023-01-09T19:05:33.835Z,2.97
2023-01-09T19:08:02.077Z,2.75
2023-01-09T19:10:30.446Z,2.55
2023-01-09T19:12:59.006Z,2.67
2023-01-09T19:15:28.017Z,2.80
2023-01-09T19:17:55.968Z,2.90
2023-01-09T19:20:24.325Z,2.88
2023-01-09T19:22:52.272Z,2.55
2023-01-09T19:25:19.118Z,2.65
2023-01-09T19:27:45.844Z,2.65
2023-01-09T19:30:12.963Z,2.95
2023-01-09T19:32:42.817Z,2.75
2023-01-09T19:35:09.647Z,2.95
2023-01-09T19:37:37.324Z,2.90
2023-01-09T19:40:05.133Z,2.92
2023-01-09T19:42:33.412Z,2.78
2023-01-09T19:45:00.587Z,2.78
2023-01-09T19:47:27.714Z,3.10
2023-01-09T19:49:58.019Z,3.00
2023-01-09T19:52:25.094Z,2.83
2023-01-09T19:54:52.074Z,3.03
2023-01-09T19:57:19.391Z,2.75
2023-01-09T19:59:46.279Z,2.70
2023-01-09T20:02:14.697Z,3.10
2023-01-09T20:04:41.664Z,2.90
2023-01-09T20:07:10.225Z,2.70
2023-01-09T20:09:37.373Z,2.55
2023-01-09T20:12:05.464Z,2.78
2023-01-09T20:14:32.476Z,2.95
2023-01-09T20:17:04.158Z,2.80
2023-01-09T20:19:32.565Z,2.90
2023-01-09T20:22:00.884Z,2.70
2023-01-09T20:24:28.128Z,2.72
2023-01-09T20:26:55.004Z,2.60
2023-01-09T20:29:21.980Z,2.75
2023-01-09T20:31:51.246Z,2.97
2023-01-09T20:34:18.131Z,2.70
2023-01-09T20:36:45.672Z,2.92
2023-01-09T20:39:13.003Z,2.72
2023-01-09T20:41:40.048Z,2.72
2023-01-09T20:44:11.535Z,2.65
2023-01-09T20:46:41.789Z,2.90
2023-01-09T20:49:12.044Z,2.92
2023-01-09T20:51:48.545Z,2.70
2023-01-09T20:54:17.235Z,2.85
2023-01-09T20:56:44.207Z,2.85
2023-01-09T20:59:13.321Z,2.75
2023-01-09T21:01:40.389Z,2.50
2023-01-09T21:04:08.737Z,2.55
2023-01-09T21:06:36.058Z,2.97
2023-01-09T21:09:04.395Z,2.40
2023-01-09T21:11:31.529Z,2.70
2023-01-09T21:13:58.301Z,2.67
2023-01-09T21:16:25.634Z,2.70
2023-01-09T21:18:54.027Z,2.50
2023-01-09T21:21:24.273Z,2.55
2023-01-09T21:23:54.663Z,2.40
2023-01-09T21:26:24.880Z,2.60
2023-01-09T21:28:55.077Z,2.55
2023-01-09T21:31:30.815Z,2.42
2023-01-09T21:33:57.763Z,2.40
2023-01-09T21:36:24.695Z,2.45
2023-01-09T21:38:54.387Z,2.50
2023-01-09T21:41:40.382Z,2.53
2023-01-09T21:44:31.873Z,2.25
2023-01-09T21:47:00.891Z,2.40
2023-01-09T21:49:31.223Z,2.70
2023-01-09T21:51:58.470Z,2.38
2023-01-09T21:54:25.449Z,2.20
2023-01-09T21:56:53.022Z,2.40
2023-01-09T21:59:19.988Z,2.40
2023-01-09T22:01:48.743Z,2.38
2023-01-09T22:04:17.611Z,2.42
2023-01-09T22:06:44.929Z,2.47
2023-01-09T22:09:12.458Z,2.40
2023-01-09T22:11:39.817Z,2.50
2023-01-09T22:14:07.091Z,2.38
2023-01-09T22:16:34.266Z,2.45
2023-01-09T22:19:01.087Z,2.22
2023-01-09T22:21:28.182Z,2.40
2023-01-09T22:23:54.932Z,2.20
2023-01-09T22:26:22.163Z,2.25
2023-01-09T22:28:49.769Z,2.10
2023-01-09T22:31:19.239Z,2.30
2023-01-09T22:33:50.938Z,2.23
2023-01-09T22:36:17.940Z,2.00
2023-01-09T22:38:45.327Z,2.38
2023-01-09T22:41:12.554Z,2.25
2023-01-09T22:43:39.922Z,2.17
2023-01-09T22:46:11.198Z,2.30
2023-01-09T22:48:39.617Z,2.25
2023-01-09T22:51:10.796Z,2.10
2023-01-09T22:53:37.545Z,2.17
2023-01-09T22:56:08.279Z,2.10
2023-01-09T22:58:35.090Z,2.22
2023-01-09T23:01:06.526Z,2.40
2023-01-09T23:03:33.545Z,2.10
2023-01-09T23:06:21.437Z,2.03
2023-01-09T23:08:52.943Z,2.45
2023-01-09T23:11:49.969Z,2.30
2023-01-09T23:14:17.713Z,2.10
2023-01-09T23:16:44.551Z,2.10
2023-01-09T23:19:17.339Z,2.70
2023-01-09T23:21:45.507Z,2.30
2023-01-09T23:24:15.610Z,2.05
2023-01-09T23:26:43.747Z,2.25
2023-01-09T23:29:11.791Z,2.30
2023-01-09T23:31:38.680Z,2.20
2023-01-09T23:34:08.115Z,2.60
2023-01-09T23:36:35.577Z,2.50
2023-01-09T23:39:04.187Z,2.53
2023-01-09T23:41:49.627Z,2.63
2023-01-09T23:44:16.529Z,2.65
2023-01-09T23:46:43.374Z,2.55
2023-01-09T23:49:10.428Z,2.83
2023-01-09T23:51:37.379Z,2.72
2023-01-09T23:54:04.378Z,3.00
2023-01-09T23:56:33.822Z,2.80
2023-01-09T23:59:02.223Z,3.00
